Terminal Aerodrome Forecast
Issued by NWS

Home | Current Version | Previous Version | Text Only | Print | Product List | Glossary On
Versions: 1 2 3 4 5 6 7 8 9 10 11 12 13 14 15 16 17 18 19 20 21 22 23
000
FTUS43 KDTX 212102 AAA
TAFPTK
TAF AMD
KPTK 212102Z 2121/2218 10007KT 4SM -RA BR OVC040
     FM220100 10007KT 4SM SHRA BR SCT012 OVC022
      TEMPO 2203/2206 2SM TSRA BR SCT008 OVC012CB
     FM220600 VRB04KT 3SM -SHRA BR OVC008
      TEMPO 2209/2212 1SM -DZ OVC006
     FM221400 30005KT 4SM BR OVC015=

USA.gov is the U.S. government's official web portal to all federal, state and local government web resources and services.